sensor_id;sensor_type;location;lat;lon;timestamp;temperature;humidity
22290;DHT22;11313;50.116;8.424;2023-07-13T00:01:16;21.50;61.20
22290;DHT22;11313;50.116;8.424;2023-07-13T00:03:41;21.50;61.20
22290;DHT22;11313;50.116;8.424;2023-07-13T00:06:08;21.50;61.10
22290;DHT22;11313;50.116;8.424;2023-07-13T00:08:34;21.50;61.10
22290;DHT22;11313;50.116;8.424;2023-07-13T00:11:01;21.50;61.00
22290;DHT22;11313;50.116;8.424;2023-07-13T00:13:27;21.50;61.00
22290;DHT22;11313;50.116;8.424;2023-07-13T00:15:53;21.50;61.00
22290;DHT22;11313;50.116;8.424;2023-07-13T00:18:22;21.50;60.90
22290;DHT22;11313;50.116;8.424;2023-07-13T00:20:47;21.50;60.90
22290;DHT22;11313;50.116;8.424;2023-07-13T00:23:14;21.60;60.90
22290;DHT22;11313;50.116;8.424;2023-07-13T00:25:39;21.50;60.80
22290;DHT22;11313;50.116;8.424;2023-07-13T00:28:05;21.50;60.70
22290;DHT22;11313;50.116;8.424;2023-07-13T00:30:30;21.50;60.70
22290;DHT22;11313;50.116;8.424;2023-07-13T00:32:56;21.50;60.70
22290;DHT22;11313;50.116;8.424;2023-07-13T00:35:22;21.60;60.70
22290;DHT22;11313;50.116;8.424;2023-07-13T00:37:48;21.60;60.70
22290;DHT22;11313;50.116;8.424;2023-07-13T00:40:15;21.60;60.60
22290;DHT22;11313;50.116;8.424;2023-07-13T00:42:40;21.60;60.70
22290;DHT22;11313;50.116;8.424;2023-07-13T00:47:39;21.60;60.60
22290;DHT22;11313;50.116;8.424;2023-07-13T00:50:07;21.60;60.60
22290;DHT22;11313;50.116;8.424;2023-07-13T00:52:36;21.60;60.60
22290;DHT22;11313;50.116;8.424;2023-07-13T00:55:03;21.60;60.50
22290;DHT22;11313;50.116;8.424;2023-07-13T00:57:28;21.60;60.50
22290;DHT22;11313;50.116;8.424;2023-07-13T00:59:57;21.60;60.50
22290;DHT22;11313;50.116;8.424;2023-07-13T01:02:24;21.60;60.50
22290;DHT22;11313;50.116;8.424;2023-07-13T01:04:50;21.60;60.40
22290;DHT22;11313;50.116;8.424;2023-07-13T01:07:16;21.60;60.40
22290;DHT22;11313;50.116;8.424;2023-07-13T01:09:43;21.60;60.40
22290;DHT22;11313;50.116;8.424;2023-07-13T01:12:10;21.60;60.40
22290;DHT22;11313;50.116;8.424;2023-07-13T01:14:36;21.60;60.30
22290;DHT22;11313;50.116;8.424;2023-07-13T01:17:02;21.60;60.30
22290;DHT22;11313;50.116;8.424;2023-07-13T01:19:42;21.60;60.20
22290;DHT22;11313;50.116;8.424;2023-07-13T01:22:12;21.60;60.20
22290;DHT22;11313;50.116;8.424;2023-07-13T01:24:40;21.60;60.20
22290;DHT22;11313;50.116;8.424;2023-07-13T01:27:09;21.70;60.20
22290;DHT22;11313;50.116;8.424;2023-07-13T01:29:37;21.60;60.10
22290;DHT22;11313;50.116;8.424;2023-07-13T01:32:11;21.60;60.00
22290;DHT22;11313;50.116;8.424;2023-07-13T01:34:36;21.60;59.90
22290;DHT22;11313;50.116;8.424;2023-07-13T01:37:03;21.70;60.00
22290;DHT22;11313;50.116;8.424;2023-07-13T01:39:29;21.60;59.70
22290;DHT22;11313;50.116;8.424;2023-07-13T01:41:54;21.70;59.80
22290;DHT22;11313;50.116;8.424;2023-07-13T01:44:20;21.70;59.70
22290;DHT22;11313;50.116;8.424;2023-07-13T01:46:45;21.70;59.50
22290;DHT22;11313;50.116;8.424;2023-07-13T01:49:11;21.70;59.60
22290;DHT22;11313;50.116;8.424;2023-07-13T01:51:36;21.60;59.60
22290;DHT22;11313;50.116;8.424;2023-07-13T01:54:02;21.70;59.50
22290;DHT22;11313;50.116;8.424;2023-07-13T01:56:27;21.70;59.50
22290;DHT22;11313;50.116;8.424;2023-07-13T01:58:53;21.70;59.30
22290;DHT22;11313;50.116;8.424;2023-07-13T02:01:18;21.70;59.30
22290;DHT22;11313;50.116;8.424;2023-07-13T02:03:44;21.70;59.30
22290;DHT22;11313;50.116;8.424;2023-07-13T02:06:09;21.70;59.40
22290;DHT22;11313;50.116;8.424;2023-07-13T02:08:35;21.70;59.20
22290;DHT22;11313;50.116;8.424;2023-07-13T02:11:03;21.70;58.90
22290;DHT22;11313;50.116;8.424;2023-07-13T02:13:28;21.70;59.00
22290;DHT22;11313;50.116;8.424;2023-07-13T02:15:54;21.70;58.90
22290;DHT22;11313;50.116;8.424;2023-07-13T02:18:19;21.70;59.10
22290;DHT22;11313;50.116;8.424;2023-07-13T02:20:45;21.70;58.80
22290;DHT22;11313;50.116;8.424;2023-07-13T02:23:11;21.70;58.90
22290;DHT22;11313;50.116;8.424;2023-07-13T02:25:37;21.70;58.70
22290;DHT22;11313;50.116;8.424;2023-07-13T02:28:02;21.70;58.70
22290;DHT22;11313;50.116;8.424;2023-07-13T02:30:29;21.70;58.60
22290;DHT22;11313;50.116;8.424;2023-07-13T02:32:55;21.70;58.50
22290;DHT22;11313;50.116;8.424;2023-07-13T02:35:21;21.70;58.70
22290;DHT22;11313;50.116;8.424;2023-07-13T02:37:47;21.70;58.50
22290;DHT22;11313;50.116;8.424;2023-07-13T02:40:12;21.70;58.60
22290;DHT22;11313;50.116;8.424;2023-07-13T02:42:38;21.70;58.50
22290;DHT22;11313;50.116;8.424;2023-07-13T02:45:04;21.70;58.40
22290;DHT22;11313;50.116;8.424;2023-07-13T02:47:32;21.70;58.30
22290;DHT22;11313;50.116;8.424;2023-07-13T02:49:57;21.70;58.40
22290;DHT22;11313;50.116;8.424;2023-07-13T02:52:23;21.70;58.50
22290;DHT22;11313;50.116;8.424;2023-07-13T02:54:48;21.70;58.10
22290;DHT22;11313;50.116;8.424;2023-07-13T02:57:14;21.70;58.40
22290;DHT22;11313;50.116;8.424;2023-07-13T02:59:39;21.70;58.40
22290;DHT22;11313;50.116;8.424;2023-07-13T03:02:05;21.70;58.20
22290;DHT22;11313;50.116;8.424;2023-07-13T03:04:30;21.70;58.00
22290;DHT22;11313;50.116;8.424;2023-07-13T03:06:56;21.70;58.20
22290;DHT22;11313;50.116;8.424;2023-07-13T03:09:26;21.70;58.00
22290;DHT22;11313;50.116;8.424;2023-07-13T03:11:54;21.70;58.30
22290;DHT22;11313;50.116;8.424;2023-07-13T03:14:21;21.70;58.30
22290;DHT22;11313;50.116;8.424;2023-07-13T03:16:47;21.70;58.00
22290;DHT22;11313;50.116;8.424;2023-07-13T03:19:12;21.70;58.00
22290;DHT22;11313;50.116;8.424;2023-07-13T03:21:38;21.80;58.00
22290;DHT22;11313;50.116;8.424;2023-07-13T03:24:03;21.70;57.70
22290;DHT22;11313;50.116;8.424;2023-07-13T03:26:29;21.70;57.70
22290;DHT22;11313;50.116;8.424;2023-07-13T03:28:55;21.80;57.60
22290;DHT22;11313;50.116;8.424;2023-07-13T03:31:24;21.70;57.30
22290;DHT22;11313;50.116;8.424;2023-07-13T03:33:50;21.70;57.10
22290;DHT22;11313;50.116;8.424;2023-07-13T03:36:23;21.70;57.20
22290;DHT22;11313;50.116;8.424;2023-07-13T03:38:52;21.70;57.20
22290;DHT22;11313;50.116;8.424;2023-07-13T03:41:18;21.70;57.10
22290;DHT22;11313;50.116;8.424;2023-07-13T03:43:44;21.70;57.30
22290;DHT22;11313;50.116;8.424;2023-07-13T03:46:10;21.80;57.30
22290;DHT22;11313;50.116;8.424;2023-07-13T03:48:35;21.80;57.20
22290;DHT22;11313;50.116;8.424;2023-07-13T03:51:01;21.80;57.20
22290;DHT22;11313;50.116;8.424;2023-07-13T03:53:26;21.70;57.20
22290;DHT22;11313;50.116;8.424;2023-07-13T03:55:52;21.80;56.90
22290;DHT22;11313;50.116;8.424;2023-07-13T03:58:31;21.80;57.00
22290;DHT22;11313;50.116;8.424;2023-07-13T04:00:57;21.70;56.90
22290;DHT22;11313;50.116;8.424;2023-07-13T04:03:24;21.80;57.00
22290;DHT22;11313;50.116;8.424;2023-07-13T04:05:49;21.80;56.90
22290;DHT22;11313;50.116;8.424;2023-07-13T04:08:15;21.80;56.70
22290;DHT22;11313;50.116;8.424;2023-07-13T04:10:40;21.80;56.90
22290;DHT22;11313;50.116;8.424;2023-07-13T04:13:06;21.70;56.80
22290;DHT22;11313;50.116;8.424;2023-07-13T04:15:32;21.80;56.60
22290;DHT22;11313;50.116;8.424;2023-07-13T04:17:58;21.80;56.50
22290;DHT22;11313;50.116;8.424;2023-07-13T04:20:25;21.70;56.50
22290;DHT22;11313;50.116;8.424;2023-07-13T04:22:51;21.70;56.70
22290;DHT22;11313;50.116;8.424;2023-07-13T04:25:16;21.80;56.60
22290;DHT22;11313;50.116;8.424;2023-07-13T04:27:42;21.80;56.50
22290;DHT22;11313;50.116;8.424;2023-07-13T04:30:08;21.80;56.30
22290;DHT22;11313;50.116;8.424;2023-07-13T04:32:34;21.80;56.30
22290;DHT22;11313;50.116;8.424;2023-07-13T04:34:59;21.80;56.30
22290;DHT22;11313;50.116;8.424;2023-07-13T04:37:26;21.80;56.00
22290;DHT22;11313;50.116;8.424;2023-07-13T04:39:51;21.80;55.70
22290;DHT22;11313;50.116;8.424;2023-07-13T04:42:17;21.80;55.70
22290;DHT22;11313;50.116;8.424;2023-07-13T04:44:48;21.80;56.20
22290;DHT22;11313;50.116;8.424;2023-07-13T04:47:14;21.90;55.80
22290;DHT22;11313;50.116;8.424;2023-07-13T04:49:39;21.80;55.80
22290;DHT22;11313;50.116;8.424;2023-07-13T04:52:05;21.90;55.70
22290;DHT22;11313;50.116;8.424;2023-07-13T04:54:33;21.90;56.20
22290;DHT22;11313;50.116;8.424;2023-07-13T04:56:58;21.90;55.70
22290;DHT22;11313;50.116;8.424;2023-07-13T04:59:24;21.90;55.90
22290;DHT22;11313;50.116;8.424;2023-07-13T05:01:49;22.00;56.10
22290;DHT22;11313;50.116;8.424;2023-07-13T05:04:15;22.00;56.00
22290;DHT22;11313;50.116;8.424;2023-07-13T05:06:40;22.00;55.70
22290;DHT22;11313;50.116;8.424;2023-07-13T05:09:05;22.10;55.90
22290;DHT22;11313;50.116;8.424;2023-07-13T05:11:32;22.10;55.80
22290;DHT22;11313;50.116;8.424;2023-07-13T05:13:58;22.00;55.60
22290;DHT22;11313;50.116;8.424;2023-07-13T05:16:23;22.10;55.70
22290;DHT22;11313;50.116;8.424;2023-07-13T05:18:49;22.10;56.00
22290;DHT22;11313;50.116;8.424;2023-07-13T05:21:15;22.10;56.00
22290;DHT22;11313;50.116;8.424;2023-07-13T05:23:40;22.10;56.00
22290;DHT22;11313;50.116;8.424;2023-07-13T05:26:09;22.10;56.00
22290;DHT22;11313;50.116;8.424;2023-07-13T05:28:35;22.20;55.90
22290;DHT22;11313;50.116;8.424;2023-07-13T05:31:01;22.20;56.00
22290;DHT22;11313;50.116;8.424;2023-07-13T05:33:27;22.20;55.80
22290;DHT22;11313;50.116;8.424;2023-07-13T05:35:52;22.30;55.80
22290;DHT22;11313;50.116;8.424;2023-07-13T05:38:18;22.30;55.70
22290;DHT22;11313;50.116;8.424;2023-07-13T05:40:44;22.30;55.60
22290;DHT22;11313;50.116;8.424;2023-07-13T05:43:10;22.30;55.50
22290;DHT22;11313;50.116;8.424;2023-07-13T05:45:36;22.30;55.50
22290;DHT22;11313;50.116;8.424;2023-07-13T05:48:02;22.40;55.50
22290;DHT22;11313;50.116;8.424;2023-07-13T05:50:27;22.40;55.50
22290;DHT22;11313;50.116;8.424;2023-07-13T05:52:53;22.40;55.30
22290;DHT22;11313;50.116;8.424;2023-07-13T05:55:19;22.40;55.20
22290;DHT22;11313;50.116;8.424;2023-07-13T05:57:44;22.40;55.30
22290;DHT22;11313;50.116;8.424;2023-07-13T06:00:10;22.40;55.10
22290;DHT22;11313;50.116;8.424;2023-07-13T06:02:36;22.50;55.10
22290;DHT22;11313;50.116;8.424;2023-07-13T06:05:02;22.50;54.90
22290;DHT22;11313;50.116;8.424;2023-07-13T06:07:27;22.50;54.90
22290;DHT22;11313;50.116;8.424;2023-07-13T06:09:53;22.50;54.80
22290;DHT22;11313;50.116;8.424;2023-07-13T06:12:18;22.50;54.70
22290;DHT22;11313;50.116;8.424;2023-07-13T06:14:44;22.50;54.70
22290;DHT22;11313;50.116;8.424;2023-07-13T06:17:09;22.50;54.60
22290;DHT22;11313;50.116;8.424;2023-07-13T06:19:35;22.60;54.60
22290;DHT22;11313;50.116;8.424;2023-07-13T06:22:00;22.60;54.60
22290;DHT22;11313;50.116;8.424;2023-07-13T06:24:26;22.60;54.40
22290;DHT22;11313;50.116;8.424;2023-07-13T06:26:52;22.60;54.40
22290;DHT22;11313;50.116;8.424;2023-07-13T06:29:17;22.60;54.40
22290;DHT22;11313;50.116;8.424;2023-07-13T06:31:43;22.60;54.20
22290;DHT22;11313;50.116;8.424;2023-07-13T06:34:08;22.70;54.20
22290;DHT22;11313;50.116;8.424;2023-07-13T06:36:34;22.70;54.20
22290;DHT22;11313;50.116;8.424;2023-07-13T06:39:01;22.70;54.10
22290;DHT22;11313;50.116;8.424;2023-07-13T06:41:27;22.70;53.90
22290;DHT22;11313;50.116;8.424;2023-07-13T06:43:52;22.70;53.90
22290;DHT22;11313;50.116;8.424;2023-07-13T06:46:21;22.70;53.90
22290;DHT22;11313;50.116;8.424;2023-07-13T06:48:46;22.70;53.80
22290;DHT22;11313;50.116;8.424;2023-07-13T06:51:12;22.70;53.80
22290;DHT22;11313;50.116;8.424;2023-07-13T06:53:37;22.70;53.80
22290;DHT22;11313;50.116;8.424;2023-07-13T06:56:03;22.80;53.80
22290;DHT22;11313;50.116;8.424;2023-07-13T06:58:29;22.80;53.70
22290;DHT22;11313;50.116;8.424;2023-07-13T07:00:54;22.80;53.70
22290;DHT22;11313;50.116;8.424;2023-07-13T07:03:20;22.80;53.60
22290;DHT22;11313;50.116;8.424;2023-07-13T07:05:45;22.80;53.60
22290;DHT22;11313;50.116;8.424;2023-07-13T07:08:11;22.80;53.50
22290;DHT22;11313;50.116;8.424;2023-07-13T07:10:37;22.80;53.40
22290;DHT22;11313;50.116;8.424;2023-07-13T07:13:03;22.80;53.50
22290;DHT22;11313;50.116;8.424;2023-07-13T07:15:29;22.80;53.30
22290;DHT22;11313;50.116;8.424;2023-07-13T07:17:54;22.80;53.40
22290;DHT22;11313;50.116;8.424;2023-07-13T07:20:20;22.80;53.30
22290;DHT22;11313;50.116;8.424;2023-07-13T07:22:46;22.80;53.30
22290;DHT22;11313;50.116;8.424;2023-07-13T07:25:12;22.80;53.30
22290;DHT22;11313;50.116;8.424;2023-07-13T07:27:38;22.80;53.20
22290;DHT22;11313;50.116;8.424;2023-07-13T07:30:04;22.80;53.20
22290;DHT22;11313;50.116;8.424;2023-07-13T07:32:30;22.80;53.20
22290;DHT22;11313;50.116;8.424;2023-07-13T07:34:57;22.80;53.20
22290;DHT22;11313;50.116;8.424;2023-07-13T07:37:23;22.90;53.20
22290;DHT22;11313;50.116;8.424;2023-07-13T07:39:49;22.90;53.10
22290;DHT22;11313;50.116;8.424;2023-07-13T07:42:16;22.90;53.10
22290;DHT22;11313;50.116;8.424;2023-07-13T07:44:42;22.90;53.00
22290;DHT22;11313;50.116;8.424;2023-07-13T07:47:08;22.90;52.90
22290;DHT22;11313;50.116;8.424;2023-07-13T07:49:35;22.90;52.80
22290;DHT22;11313;50.116;8.424;2023-07-13T07:52:01;22.90;52.80
22290;DHT22;11313;50.116;8.424;2023-07-13T07:54:26;22.90;52.70
22290;DHT22;11313;50.116;8.424;2023-07-13T07:56:52;22.90;52.70
22290;DHT22;11313;50.116;8.424;2023-07-13T07:59:19;22.90;52.70
22290;DHT22;11313;50.116;8.424;2023-07-13T08:01:45;22.90;52.60
22290;DHT22;11313;50.116;8.424;2023-07-13T08:04:11;22.90;52.70
22290;DHT22;11313;50.116;8.424;2023-07-13T08:06:37;22.90;52.60
22290;DHT22;11313;50.116;8.424;2023-07-13T08:09:03;22.90;52.60
22290;DHT22;11313;50.116;8.424;2023-07-13T08:11:30;22.90;52.50
22290;DHT22;11313;50.116;8.424;2023-07-13T08:13:55;22.90;52.60
22290;DHT22;11313;50.116;8.424;2023-07-13T08:16:21;22.90;52.60
22290;DHT22;11313;50.116;8.424;2023-07-13T08:18:47;22.90;52.60
22290;DHT22;11313;50.116;8.424;2023-07-13T08:21:13;23.00;52.60
22290;DHT22;11313;50.116;8.424;2023-07-13T08:23:38;22.90;52.50
22290;DHT22;11313;50.116;8.424;2023-07-13T08:26:04;22.90;52.40
22290;DHT22;11313;50.116;8.424;2023-07-13T08:28:30;22.90;52.30
22290;DHT22;11313;50.116;8.424;2023-07-13T08:31:00;23.00;52.40
22290;DHT22;11313;50.116;8.424;2023-07-13T08:33:26;23.00;52.40
22290;DHT22;11313;50.116;8.424;2023-07-13T08:35:51;23.00;52.40
22290;DHT22;11313;50.116;8.424;2023-07-13T08:38:18;23.00;52.40
22290;DHT22;11313;50.116;8.424;2023-07-13T08:40:45;23.00;52.40
22290;DHT22;11313;50.116;8.424;2023-07-13T08:43:19;23.00;52.30
22290;DHT22;11313;50.116;8.424;2023-07-13T08:45:49;23.00;52.30
22290;DHT22;11313;50.116;8.424;2023-07-13T08:48:24;23.00;52.30
22290;DHT22;11313;50.116;8.424;2023-07-13T08:51:02;23.00;52.20
22290;DHT22;11313;50.116;8.424;2023-07-13T08:53:36;23.00;52.30
22290;DHT22;11313;50.116;8.424;2023-07-13T08:56:05;23.00;52.20
22290;DHT22;11313;50.116;8.424;2023-07-13T08:58:36;23.00;52.20
22290;DHT22;11313;50.116;8.424;2023-07-13T09:04:04;23.00;52.20
22290;DHT22;11313;50.116;8.424;2023-07-13T09:06:39;23.00;52.20
22290;DHT22;11313;50.116;8.424;2023-07-13T09:09:30;23.00;52.20
22290;DHT22;11313;50.116;8.424;2023-07-13T09:14:34;23.00;52.20
22290;DHT22;11313;50.116;8.424;2023-07-13T09:17:05;23.00;52.10
22290;DHT22;11313;50.116;8.424;2023-07-13T09:19:34;23.00;52.10
22290;DHT22;11313;50.116;8.424;2023-07-13T09:22:02;23.00;52.20
22290;DHT22;11313;50.116;8.424;2023-07-13T09:24:41;23.00;52.20
22290;DHT22;11313;50.116;8.424;2023-07-13T09:27:21;23.00;52.20
22290;DHT22;11313;50.116;8.424;2023-07-13T09:29:57;23.10;52.20
22290;DHT22;11313;50.116;8.424;2023-07-13T09:32:24;23.10;52.20
22290;DHT22;11313;50.116;8.424;2023-07-13T09:34:53;23.10;52.20
22290;DHT22;11313;50.116;8.424;2023-07-13T09:37:21;23.10;52.10
22290;DHT22;11313;50.116;8.424;2023-07-13T09:39:49;23.10;52.10
22290;DHT22;11313;50.116;8.424;2023-07-13T09:42:17;23.10;52.10
22290;DHT22;11313;50.116;8.424;2023-07-13T09:44:56;23.10;52.00
22290;DHT22;11313;50.116;8.424;2023-07-13T09:47:24;23.10;52.00
22290;DHT22;11313;50.116;8.424;2023-07-13T09:52:21;23.10;52.00
22290;DHT22;11313;50.116;8.424;2023-07-13T09:54:50;23.10;52.00
22290;DHT22;11313;50.116;8.424;2023-07-13T09:57:18;23.10;52.00
22290;DHT22;11313;50.116;8.424;2023-07-13T09:59:46;23.10;52.00
22290;DHT22;11313;50.116;8.424;2023-07-13T10:05:07;23.10;52.00
22290;DHT22;11313;50.116;8.424;2023-07-13T10:07:39;23.10;51.90
22290;DHT22;11313;50.116;8.424;2023-07-13T10:10:14;23.10;51.90
22290;DHT22;11313;50.116;8.424;2023-07-13T10:12:40;23.10;51.90
22290;DHT22;11313;50.116;8.424;2023-07-13T10:15:15;23.10;51.90
22290;DHT22;11313;50.116;8.424;2023-07-13T10:17:41;23.10;51.80
22290;DHT22;11313;50.116;8.424;2023-07-13T10:20:07;23.10;51.80
22290;DHT22;11313;50.116;8.424;2023-07-13T10:25:17;23.10;51.90
22290;DHT22;11313;50.116;8.424;2023-07-13T10:27:43;23.10;51.90
22290;DHT22;11313;50.116;8.424;2023-07-13T10:30:25;23.10;51.90
22290;DHT22;11313;50.116;8.424;2023-07-13T10:32:53;23.10;51.80
22290;DHT22;11313;50.116;8.424;2023-07-13T10:35:20;23.10;51.80
22290;DHT22;11313;50.116;8.424;2023-07-13T10:38:03;23.10;51.80
22290;DHT22;11313;50.116;8.424;2023-07-13T10:40:45;23.10;51.80
22290;DHT22;11313;50.116;8.424;2023-07-13T10:43:22;23.10;51.80
22290;DHT22;11313;50.116;8.424;2023-07-13T10:45:49;23.10;51.90
22290;DHT22;11313;50.116;8.424;2023-07-13T10:48:19;23.10;52.50
22290;DHT22;11313;50.116;8.424;2023-07-13T10:50:49;23.10;51.90
22290;DHT22;11313;50.116;8.424;2023-07-13T10:53:33;23.10;51.90
22290;DHT22;11313;50.116;8.424;2023-07-13T10:56:04;23.10;52.00
22290;DHT22;11313;50.116;8.424;2023-07-13T10:58:43;23.10;51.90
22290;DHT22;11313;50.116;8.424;2023-07-13T11:03:55;23.10;51.90
22290;DHT22;11313;50.116;8.424;2023-07-13T11:11:49;23.10;51.70
22290;DHT22;11313;50.116;8.424;2023-07-13T11:14:36;23.10;51.80
22290;DHT22;11313;50.116;8.424;2023-07-13T11:28:16;23.10;51.80
22290;DHT22;11313;50.116;8.424;2023-07-13T11:30:43;23.10;51.90
22290;DHT22;11313;50.116;8.424;2023-07-13T11:33:15;23.10;51.90
22290;DHT22;11313;50.116;8.424;2023-07-13T11:36:05;23.10;51.80
22290;DHT22;11313;50.116;8.424;2023-07-13T11:38:39;23.20;51.80
22290;DHT22;11313;50.116;8.424;2023-07-13T11:41:22;23.10;51.80
22290;DHT22;11313;50.116;8.424;2023-07-13T11:43:54;23.10;51.70
22290;DHT22;11313;50.116;8.424;2023-07-13T11:46:22;23.10;52.00
22290;DHT22;11313;50.116;8.424;2023-07-13T11:48:49;23.10;51.80
22290;DHT22;11313;50.116;8.424;2023-07-13T11:53:51;23.10;51.90
22290;DHT22;11313;50.116;8.424;2023-07-13T11:56:17;23.10;51.80
22290;DHT22;11313;50.116;8.424;2023-07-13T11:58:43;23.10;51.90
22290;DHT22;11313;50.116;8.424;2023-07-13T12:01:20;23.10;51.80
22290;DHT22;11313;50.116;8.424;2023-07-13T12:03:47;23.10;51.80
22290;DHT22;11313;50.116;8.424;2023-07-13T12:06:33;23.10;51.70
22290;DHT22;11313;50.116;8.424;2023-07-13T12:09:02;23.10;51.80
22290;DHT22;11313;50.116;8.424;2023-07-13T12:11:29;23.20;51.80
22290;DHT22;11313;50.116;8.424;2023-07-13T12:13:55;23.10;51.70
22290;DHT22;11313;50.116;8.424;2023-07-13T12:18:47;23.10;51.70
22290;DHT22;11313;50.116;8.424;2023-07-13T12:21:16;23.10;51.70
22290;DHT22;11313;50.116;8.424;2023-07-13T12:23:44;23.10;51.70
22290;DHT22;11313;50.116;8.424;2023-07-13T12:26:11;23.10;51.70
22290;DHT22;11313;50.116;8.424;2023-07-13T12:28:43;23.10;51.80
22290;DHT22;11313;50.116;8.424;2023-07-13T12:31:24;23.10;51.80
22290;DHT22;11313;50.116;8.424;2023-07-13T12:36:23;23.10;51.80
22290;DHT22;11313;50.116;8.424;2023-07-13T12:38:49;23.10;51.90
22290;DHT22;11313;50.116;8.424;2023-07-13T12:41:15;23.10;51.80
22290;DHT22;11313;50.116;8.424;2023-07-13T12:43:41;23.10;51.80
22290;DHT22;11313;50.116;8.424;2023-07-13T12:46:19;23.10;51.80
22290;DHT22;11313;50.116;8.424;2023-07-13T12:48:52;23.10;51.80
22290;DHT22;11313;50.116;8.424;2023-07-13T12:51:22;23.10;51.80
22290;DHT22;11313;50.116;8.424;2023-07-13T12:53:51;23.10;51.80
22290;DHT22;11313;50.116;8.424;2023-07-13T12:56:23;23.10;51.70
22290;DHT22;11313;50.116;8.424;2023-07-13T12:58:50;23.20;52.50
22290;DHT22;11313;50.116;8.424;2023-07-13T13:01:22;23.20;51.80
22290;DHT22;11313;50.116;8.424;2023-07-13T13:03:51;23.10;51.80
22290;DHT22;11313;50.116;8.424;2023-07-13T13:06:23;23.10;51.80
22290;DHT22;11313;50.116;8.424;2023-07-13T13:08:54;23.10;51.80
22290;DHT22;11313;50.116;8.424;2023-07-13T13:11:22;23.10;51.70
22290;DHT22;11313;50.116;8.424;2023-07-13T13:13:48;23.20;51.70
22290;DHT22;11313;50.116;8.424;2023-07-13T13:18:53;23.10;51.70
22290;DHT22;11313;50.116;8.424;2023-07-13T13:21:20;23.10;51.60
22290;DHT22;11313;50.116;8.424;2023-07-13T13:23:46;23.10;51.70
22290;DHT22;11313;50.116;8.424;2023-07-13T13:26:14;23.10;51.60
22290;DHT22;11313;50.116;8.424;2023-07-13T13:28:41;23.10;51.60
22290;DHT22;11313;50.116;8.424;2023-07-13T13:31:08;23.10;51.70
22290;DHT22;11313;50.116;8.424;2023-07-13T13:33:42;23.10;51.70
22290;DHT22;11313;50.116;8.424;2023-07-13T13:36:17;23.10;51.60
22290;DHT22;11313;50.116;8.424;2023-07-13T13:38:44;23.20;51.70
22290;DHT22;11313;50.116;8.424;2023-07-13T13:41:11;23.20;51.70
22290;DHT22;11313;50.116;8.424;2023-07-13T13:43:39;23.20;51.70
22290;DHT22;11313;50.116;8.424;2023-07-13T13:46:13;23.20;51.80
22290;DHT22;11313;50.116;8.424;2023-07-13T13:48:40;23.20;52.40
22290;DHT22;11313;50.116;8.424;2023-07-13T13:51:15;23.20;51.80
22290;DHT22;11313;50.116;8.424;2023-07-13T13:53:41;23.20;51.80
22290;DHT22;11313;50.116;8.424;2023-07-13T13:56:08;23.20;51.70
22290;DHT22;11313;50.116;8.424;2023-07-13T13:58:33;23.20;51.70
22290;DHT22;11313;50.116;8.424;2023-07-13T14:00:59;23.10;51.60
22290;DHT22;11313;50.116;8.424;2023-07-13T14:03:24;23.20;51.70
22290;DHT22;11313;50.116;8.424;2023-07-13T14:05:50;23.10;51.50
22290;DHT22;11313;50.116;8.424;2023-07-13T14:08:19;23.20;51.60
22290;DHT22;11313;50.116;8.424;2023-07-13T14:10:53;23.20;51.50
22290;DHT22;11313;50.116;8.424;2023-07-13T14:13:28;23.10;51.40
22290;DHT22;11313;50.116;8.424;2023-07-13T14:15:54;23.10;51.50
22290;DHT22;11313;50.116;8.424;2023-07-13T14:18:20;23.20;51.40
22290;DHT22;11313;50.116;8.424;2023-07-13T14:20:47;23.10;51.40
22290;DHT22;11313;50.116;8.424;2023-07-13T14:23:14;23.20;51.40
22290;DHT22;11313;50.116;8.424;2023-07-13T14:25:40;23.20;51.40
22290;DHT22;11313;50.116;8.424;2023-07-13T14:28:20;23.10;51.40
22290;DHT22;11313;50.116;8.424;2023-07-13T14:30:46;23.10;51.40
22290;DHT22;11313;50.116;8.424;2023-07-13T14:33:13;23.10;51.30
22290;DHT22;11313;50.116;8.424;2023-07-13T14:35:38;23.10;51.40
22290;DHT22;11313;50.116;8.424;2023-07-13T14:38:04;23.10;51.40
22290;DHT22;11313;50.116;8.424;2023-07-13T14:40:31;23.20;51.40
22290;DHT22;11313;50.116;8.424;2023-07-13T14:42:58;23.10;51.40
22290;DHT22;11313;50.116;8.424;2023-07-13T14:45:24;23.20;51.40
22290;DHT22;11313;50.116;8.424;2023-07-13T14:47:50;23.10;51.50
22290;DHT22;11313;50.116;8.424;2023-07-13T14:50:23;23.10;51.60
22290;DHT22;11313;50.116;8.424;2023-07-13T14:52:50;23.10;51.60
22290;DHT22;11313;50.116;8.424;2023-07-13T14:55:17;23.20;51.70
22290;DHT22;11313;50.116;8.424;2023-07-13T14:57:43;23.10;51.70
22290;DHT22;11313;50.116;8.424;2023-07-13T15:00:17;23.10;51.60
22290;DHT22;11313;50.116;8.424;2023-07-13T15:02:51;23.20;51.70
22290;DHT22;11313;50.116;8.424;2023-07-13T15:05:21;23.10;51.60
22290;DHT22;11313;50.116;8.424;2023-07-13T15:07:48;23.10;51.70
22290;DHT22;11313;50.116;8.424;2023-07-13T15:10:26;23.10;51.70
22290;DHT22;11313;50.116;8.424;2023-07-13T15:12:52;23.20;51.70
22290;DHT22;11313;50.116;8.424;2023-07-13T15:15:19;23.10;51.60
22290;DHT22;11313;50.116;8.424;2023-07-13T15:17:46;23.20;51.70
22290;DHT22;11313;50.116;8.424;2023-07-13T15:20:29;23.10;51.60
22290;DHT22;11313;50.116;8.424;2023-07-13T15:22:55;23.20;51.70
22290;DHT22;11313;50.116;8.424;2023-07-13T15:25:25;23.20;51.60
22290;DHT22;11313;50.116;8.424;2023-07-13T15:27:53;23.20;51.60
22290;DHT22;11313;50.116;8.424;2023-07-13T15:30:19;23.10;51.60
22290;DHT22;11313;50.116;8.424;2023-07-13T15:32:45;23.10;51.60
22290;DHT22;11313;50.116;8.424;2023-07-13T15:35:19;23.10;51.50
22290;DHT22;11313;50.116;8.424;2023-07-13T15:37:46;23.10;51.60
22290;DHT22;11313;50.116;8.424;2023-07-13T15:40:13;23.10;51.60
22290;DHT22;11313;50.116;8.424;2023-07-13T15:42:40;23.10;51.60
22290;DHT22;11313;50.116;8.424;2023-07-13T15:45:19;23.20;51.60
22290;DHT22;11313;50.116;8.424;2023-07-13T15:47:46;23.10;51.60
22290;DHT22;11313;50.116;8.424;2023-07-13T15:50:14;23.10;52.20
22290;DHT22;11313;50.116;8.424;2023-07-13T15:52:41;23.20;51.60
22290;DHT22;11313;50.116;8.424;2023-07-13T15:55:11;23.20;51.60
22290;DHT22;11313;50.116;8.424;2023-07-13T15:57:37;23.20;51.50
22290;DHT22;11313;50.116;8.424;2023-07-13T16:00:03;23.20;51.60
22290;DHT22;11313;50.116;8.424;2023-07-13T16:02:31;23.20;51.50
22290;DHT22;11313;50.116;8.424;2023-07-13T16:04:56;23.20;51.60
22290;DHT22;11313;50.116;8.424;2023-07-13T16:07:22;23.20;51.60
22290;DHT22;11313;50.116;8.424;2023-07-13T16:09:48;23.10;51.40
22290;DHT22;11313;50.116;8.424;2023-07-13T16:12:15;23.10;51.50
22290;DHT22;11313;50.116;8.424;2023-07-13T16:14:41;23.10;51.40
22290;DHT22;11313;50.116;8.424;2023-07-13T16:17:11;23.10;51.30
22290;DHT22;11313;50.116;8.424;2023-07-13T16:19:37;23.10;51.20